Norden-Norddeich Airport

EDWS · Lower Saxony, Germany

METAR history EDWS · Norden-Norddeich Airport

Below you see METARs of the last few days. Select a year to browse through older METARs, from the year 2007 onwards.

November 29, 2022

Time Code Weather Temp. Visibility Ceiling Wind METAR/SPECI
21:25
M
9 °C 10 km+ 2,800 ft 060° 060° 8 kt METAR EHHW 292025Z AUTO 06008KT 030V130 9999 FEW013/// SCT025/// BKN028/// 09/05 Q1021
20:55
M
9 °C 10 km+ 2,500 ft 060° 060° 9 kt METAR EHHW 291955Z AUTO 06009KT 020V170 9999 FEW022/// BKN025/// OVC031/// 09/05 Q1021
20:25
M
9 °C 10 km+ 2,400 ft 050° 050° 9 kt METAR EHHW 291925Z AUTO 05009KT 9999 FEW018/// OVC024/// 09/05 Q1021
19:55
M
9 °C 10 km+ 2,300 ft 050° 050° 8 kt METAR EHHW 291855Z AUTO 05008KT 020V110 9999 FEW014/// SCT016/// OVC023/// 09/05 Q1021
19:25
M
9 °C 10 km+ 1,700 ft 050° 050° 10 kt METAR EHHW 291825Z AUTO 05010KT 020V080 9999 FEW014/// BKN017/// OVC020/// 09/05 Q1021
18:55
M
9 °C 10 km+ 1,800 ft 050° 050° 8 kt METAR EHHW 291755Z AUTO 05008KT 020V090 9999 FEW015/// BKN018/// OVC022/// 09/05 Q1020
18:25
M
9 °C 10 km+ 2,000 ft 050° 050° 9 kt METAR EHHW 291725Z AUTO 05009KT 9999 SCT015/// OVC020/// 09/05 Q1020
17:55
M
9 °C 10 km+ 1,500 ft 060° 060° 10 kt METAR EHHW 291655Z AUTO 06010KT 040V120 9999 SCT012/// BKN015/// BKN020/// 09/06 Q1020
17:25
V
9 °C 10 km+ - Var Var 8 kt METAR EHHW 291625Z AUTO VRB08KT 9999 FEW012/// SCT014/// 09/06 Q1019
16:55
M
9 °C 10 km+ 2,200 ft Var Var 8 kt METAR EHHW 291555Z AUTO VRB08KT 9999 FEW012/// SCT017/// BKN022/// 09/06 Q1019
16:25
M
9 °C 10 km+ 1,700 ft 060° 060° 9 kt METAR EHHW 291525Z AUTO 06009KT 040V110 9999 FEW013/// BKN017/// OVC020/// 09/06 Q1019
15:55
M
9 °C 10 km+ 1,600 ft 050° 050° 9 kt METAR EHHW 291455Z AUTO 05009KT 9999 FEW013/// OVC016/// 09/06 Q1019
15:25
M
9 °C 10 km+ 1,400 ft 050° 050° 11 kt METAR EHHW 291425Z AUTO 05011KT 9999 SCT012/// BKN014/// OVC017/// 09/06 Q1019
14:55
M
9 °C 10 km+ 1,300 ft 050° 050° 10 kt METAR EHHW 291355Z AUTO 05010KT 9999 SCT011/// OVC013/// 09/06 Q1019
14:25
M
9 °C 10 km+ 1,200 ft 050° 050° 9 kt METAR EHHW 291325Z AUTO 05009KT 9999 SCT010/// BKN012/// OVC015/// 09/06 Q1019
13:55
M
9 °C 10 km+ 1,200 ft 060° 060° 10 kt METAR EHHW 291255Z AUTO 06010KT 030V180 9999 SCT010/// OVC012/// 09/06 Q1018
13:25
M
9 °C 10 km+ 1,000 ft 060° 060° 9 kt METAR EHHW 291225Z AUTO 06009KT 030V170 9999 FEW009/// BKN010/// OVC012/// 09/06 Q1018
12:55
M
9 °C 10 km+ 1,000 ft 060° 060° 9 kt METAR EHHW 291155Z AUTO 06009KT 020V100 9999 FEW009/// BKN010/// OVC013/// 09/07 Q1018
12:25
M
9 °C 10 km+ 1,000 ft Var Var 9 kt METAR EHHW 291125Z AUTO VRB09KT 9999 FEW009/// BKN010/// OVC012/// 09/07 Q1017
11:55
M
9 °C 10 km+ 1,000 ft 060° 060° 10 kt METAR EHHW 291055Z AUTO 06010KT 350V160 9999 FEW008/// BKN010/// OVC013/// 09/07 Q1017
11:25
M
9 °C 10 km+ 1,000 ft 060° 060° 12 kt METAR EHHW 291025Z AUTO 06012KT 010V110 9999 FEW009/// BKN010/// BKN012/// 09/07 Q1017
10:55
M
9 °C 10 km+ 1,400 ft 050° 050° 14 kt METAR EHHW 290955Z AUTO 05014KT 9999 FEW009/// SCT011/// BKN014/// 09/07 Q1017
10:25
M
10 °C 10 km+ 1,300 ft 050° 050° 12 kt METAR EHHW 290925Z AUTO 05012KT 9999 FEW008/// SCT010/// BKN013/// 10/07 Q1017
09:55
M
10 °C 10 km+ 1,200 ft 050° 050° 12 kt METAR EHHW 290855Z AUTO 05012KT 9999 FEW008/// SCT009/// BKN012/// 10/07 Q1017
09:25
M
10 °C 10 km+ 1,300 ft 050° 050° 11 kt METAR EHHW 290825Z AUTO 05011KT 9999 FEW008/// SCT009/// BKN013/// 10/07 Q1016
08:55
V
10 °C 10 km+ 3,700 ft 050° 050° 11 kt METAR EHHW 290755Z AUTO 05011KT 9999 FEW008/// SCT029/// BKN037/// 10/08 Q1016
08:25
V
10 °C 10 km+ 3,400 ft 050° 050° 10 kt METAR EHHW 290725Z AUTO 05010KT 9999 FEW001/// SCT010/// BKN034/// 10/08 Q1016
07:55
M
10 °C 8 km 2,800 ft 050° 050° 10 kt METAR EHHW 290655Z AUTO 05010KT 8000 -RA FEW001/// SCT009/// BKN028/// 10/08 Q1015 RERA REDZ
07:25
M
10 °C 10 km+ 2,900 ft 050° 050° 10 kt METAR EHHW 290625Z AUTO 05010KT 9999 FEW008/// SCT009/// BKN029/// 10/08 Q1015
06:55
I
10 °C 10 km+ 900 ft 050° 050° 9 kt METAR EHHW 290555Z AUTO 05009KT 9999 FEW007/// SCT008/// BKN009/// 10/08 Q1015
06:25
M
10 °C 10 km+ 2,800 ft 060° 060° 10 kt METAR EHHW 290525Z AUTO 06010KT 010V120 9999 FEW001/// SCT008/// BKN028/// 10/08 Q1014
05:55
M
11 °C 10 km+ 1,100 ft 060° 060° 9 kt METAR EHHW 290455Z AUTO 06009KT 010V100 9999 DZ FEW000/// SCT006/// BKN011/// 11/09 Q1014
05:25
M
11 °C 5 km 2,900 ft 040° 040° 9 kt METAR EHHW 290425Z AUTO 04009KT 010V070 5000 +DZRA FEW000/// SCT005/// BKN029/// 11/09 Q1014
04:55
M
11 °C 10 km+ 2,900 ft 020° 020° 9 kt METAR EHHW 290355Z AUTO 02009KT 350V050 9999 FEW006/// SCT008/// BKN029/// 11/09 Q1013
04:25
I
11 °C 10 km+ 900 ft 010° 010° 8 kt METAR EHHW 290325Z AUTO 01008KT 300V040 9999 SCT006/// SCT008/// BKN009/// 11/09 Q1013
03:55
M
11 °C 10 km+ 1,300 ft 270° 270° 8 kt METAR EHHW 290255Z AUTO 27008KT 9999 FEW007/// SCT008/// BKN013/// 11/09 Q1013
03:25
I
11 °C 10 km+ 900 ft 280° 280° 9 kt METAR EHHW 290225Z AUTO 28009KT 9999 FEW007/// SCT008/// BKN009/// 11/09 Q1013
02:55
M
11 °C 10 km+ 1,100 ft 280° 280° 9 kt METAR EHHW 290155Z AUTO 28009KT 9999 SCT007/// SCT009/// BKN011/// 11/09 Q1013
02:25
M
11 °C 10 km+ 1,100 ft 290° 290° 11 kt METAR EHHW 290125Z AUTO 29011KT 250V310 9999 FEW008/// SCT009/// BKN011/// 11/09 Q1013
01:55
M
11 °C 10 km+ 1,200 ft 300° 300° 9 kt METAR EHHW 290055Z AUTO 30009KT 9999 -RA FEW008/// SCT010/// BKN012/// 11/09 Q1013
01:25
M
11 °C 10 km+ 1,300 ft 300° 300° 9 kt METAR EHHW 290025Z AUTO 30009KT 270V340 9999 FEW009/// SCT011/// BKN013/// 11/09 Q1012
00:55
M
11 °C 10 km+ 1,400 ft 300° 300° 9 kt METAR EHHW 282355Z AUTO 30009KT 9999 SCT011/// BKN014/// BKN017/// 11/08 Q1012
00:25
V
11 °C 10 km+ - 300° 300° 9 kt METAR EHHW 282325Z AUTO 30009KT 9999 FEW012/// 11/08 Q1012

November 28, 2022

Time Code Weather Temp. Visibility Ceiling Wind METAR/SPECI
23:55
V
11 °C 10 km+ - 310° 310° 8 kt METAR EHHW 282255Z AUTO 31008KT 280V340 9999 FEW012/// 11/07 Q1012
23:25
V
11 °C 10 km+ - 310° 310° 9 kt METAR EHHW 282225Z AUTO 31009KT 280V340 9999 FEW010/// 11/08 Q1012
22:55
V
11 °C 10 km+ 4,700 ft 310° 310° 9 kt METAR EHHW 282155Z AUTO 31009KT 9999 FEW010/// BKN047/// 11/08 Q1012
22:25
V
11 °C 10 km+ 4,100 ft 310° 310° 10 kt METAR EHHW 282125Z AUTO 31010KT 9999 FEW010/// SCT018/// BKN041/// 11/08 Q1012
21:55
M
11 °C 10 km+ 1,800 ft 310° 310° 9 kt METAR EHHW 282055Z AUTO 31009KT 9999 FEW011/// SCT013/// BKN018/// 11/08 Q1012
21:25
V
11 °C 10 km+ 4,200 ft 290° 290° 11 kt METAR EHHW 282025Z AUTO 29011KT 9999 SCT013/// SCT016/// OVC042/// 11/08 Q1011
20:55
M
11 °C 10 km+ 1,900 ft 290° 290° 11 kt METAR EHHW 281955Z AUTO 29011KT 9999 SCT012/// SCT016/// BKN019/// 11/08 Q1011
20:25
V
11 °C 10 km+ 4,600 ft 280° 280° 10 kt METAR EHHW 281925Z AUTO 28010KT 9999 FEW012/// SCT016/// BKN046/// 11/08 Q1011
19:55
V
11 °C 10 km+ - 280° 280° 9 kt METAR EHHW 281855Z AUTO 28009KT 9999 FEW015/// 11/09 Q1011
19:25
V
11 °C 10 km+ - 290° 290° 9 kt METAR EHHW 281825Z AUTO 29009KT 9999 FEW011/// 11/09 Q1010
18:55
V
11 °C 10 km+ - 280° 280° 7 kt METAR EHHW 281755Z AUTO 28007KT 9999 -DZ FEW011/// 11/09 Q1010
18:25
V
11 °C 10 km+ - 260° 260° 8 kt METAR EHHW 281725Z AUTO 26008KT 230V290 9999 -DZ FEW012/// 11/09 Q1010
17:55
V
11 °C 8 km - 250° 250° 6 kt METAR EHHW 281655Z AUTO 25006KT 200V280 8000 -RA FEW012/// 11/09 Q1010 RERA REDZ
17:25
M
11 °C 7 km 4,700 ft 240° 240° 6 kt METAR EHHW 281625Z AUTO 24006KT 200V280 7000 DZ FEW002/// BKN047/// 11/09 Q1009
16:55
V
11 °C 10 km+ - 250° 250° 9 kt METAR EHHW 281555Z AUTO 25009KT 210V270 9999 -RA FEW002/// 11/09 Q1009 RERA REDZ
16:25
V
11 °C 10 km+ - 240° 240° 5 kt METAR EHHW 281525Z AUTO 24005KT 200V280 9999 -DZ FEW002/// SCT009/// 11/08 Q1009
15:55
V
11 °C 10 km+ 4,700 ft 220° 220° 6 kt METAR EHHW 281455Z AUTO 22006KT 190V280 9999 -DZ FEW001/// SCT007/// BKN047/// 11/10 Q1009
15:25
V
10 °C 10 km+ 4,700 ft 200° 200° 4 kt METAR EHHW 281425Z AUTO 20004KT 9999 -DZ FEW001/// SCT007/// BKN047/// 10/09 Q1008
14:55
L
10 °C 10 km+ 400 ft 190° 190° 4 kt METAR EHHW 281355Z AUTO 19004KT 160V230 9999 -RA FEW001/// SCT003/// BKN004/// 10/09 Q1008
14:25
L
10 °C 10 km+ 300 ft 190° 190° 3 kt METAR EHHW 281325Z AUTO 19003KT 9999 -RA FEW001/// BKN003/// BKN004/// 10/09 Q1008
13:55
I
10 °C 10 km+ 500 ft 170° 170° 3 kt METAR EHHW 281255Z AUTO 17003KT 130V190 9999 -RA FEW002/// SCT003/// BKN005/// 10/09 Q1008
13:25
L
9 °C 10 km+ 300 ft 160° 160° 3 kt METAR EHHW 281225Z AUTO 16003KT 9999 -RA FEW002/// BKN003/// BKN005/// 09/09 Q1008
12:55
L
9 °C 10 km+ 300 ft 160° 160° 5 kt METAR EHHW 281155Z AUTO 16005KT 9999 -RA SCT002/// BKN003/// OVC004/// 09/09 Q1008 RERA REDZ
12:25
L
9 °C 10 km+ 300 ft 170° 170° 6 kt METAR EHHW 281125Z AUTO 17006KT 9999 FEW002/// BKN003/// OVC005/// 09/09 Q1008
11:55
L
9 °C 10 km+ 400 ft 180° 180° 8 kt METAR EHHW 281055Z AUTO 18008KT 9999 SCT003/// BKN004/// OVC006/// 09/08 Q1008
11:25
I
9 °C 10 km+ 700 ft 180° 180° 9 kt METAR EHHW 281025Z AUTO 18009KT 9999 FEW004/// SCT005/// BKN007/// 09/08 Q1008
10:55
I
9 °C 10 km+ 800 ft 200° 200° 7 kt METAR EHHW 280955Z AUTO 20007KT 9999 SCT007/// BKN008/// OVC012/// 09/08 Q1007
10:25
I
9 °C 10 km+ 900 ft 200° 200° 9 kt METAR EHHW 280925Z AUTO 20009KT 9999 FEW007/// BKN009/// OVC012/// 09/07 Q1007
09:55
I
9 °C 10 km+ 800 ft 210° 210° 8 kt METAR EHHW 280855Z AUTO 21008KT 190V250 9999 SCT007/// OVC008/// 09/07 Q1007
09:25
I
9 °C 10 km+ 800 ft 200° 200° 10 kt METAR EHHW 280825Z AUTO 20010KT 9999 FEW007/// BKN008/// OVC009/// 09/07 Q1007
08:55
I
8 °C 10 km+ 900 ft 200° 200° 10 kt METAR EHHW 280755Z AUTO 20010KT 9999 SCT007/// BKN009/// OVC011/// 08/06 Q1007
08:25
I
8 °C 10 km+ 900 ft 190° 190° 11 kt METAR EHHW 280725Z AUTO 19011KT 9999 FEW002/// SCT008/// BKN009/// 08/06 Q1007
07:55
I
8 °C 10 km+ 700 ft 190° 190° 11 kt METAR EHHW 280655Z AUTO 19011KT 9999 FEW002/// SCT005/// BKN007/// 08/06 Q1007
07:25
I
8 °C 10 km+ 500 ft 180° 180° 11 kt METAR EHHW 280625Z AUTO 18011KT 9999 FEW003/// SCT004/// BKN005/// 08/07 Q1006
06:55
L
8 °C 10 km+ 400 ft 190° 190° 11 kt METAR EHHW 280555Z AUTO 19011KT 9999 FEW003/// BKN004/// BKN006/// 08/07 Q1007
06:25
I
8 °C 10 km+ 500 ft 190° 190° 11 kt METAR EHHW 280525Z AUTO 19011KT 160V220 9999 FEW003/// SCT004/// BKN005/// 08/07 Q1007
05:55
I
7 °C 10 km+ 500 ft 180° 180° 14 kt METAR EHHW 280455Z AUTO 18014KT 9999 FEW004/// BKN005/// BKN006/// 07/06 Q1007
05:25
I
7 °C 10 km+ 500 ft 170° 170° 14 kt METAR EHHW 280425Z AUTO 17014KT 140V200 9999 SCT004/// BKN005/// BKN007/// 07/06 Q1007
04:55
I
7 °C 10 km+ 500 ft 170° 170° 13 kt METAR EHHW 280355Z AUTO 17013KT 9999 FEW004/// BKN005/// BKN007/// 07/06 Q1007
04:25
I
7 °C 10 km+ 600 ft 170° 170° 14 kt METAR EHHW 280325Z AUTO 17014KT 9999 -DZ FEW004/// BKN006/// BKN007/// 07/06 Q1007
03:55
I
7 °C 10 km+ 600 ft 170° 170° 15 kt METAR EHHW 280255Z AUTO 17015KT 9999 -UP FEW004/// BKN006/// BKN007/// 07/06 Q1007
03:25
I
7 °C 10 km+ 600 ft 170° 170° 16 kt METAR EHHW 280225Z AUTO 17016KT 9999 FEW005/// BKN006/// BKN008/// 07/06 Q1007
02:55
I
7 °C 10 km+ 700 ft 170° 170° 17 kt METAR EHHW 280155Z AUTO 17017KT 9999 FEW006/// BKN007/// BKN008/// 07/06 Q1008
02:25
I
7 °C 10 km+ 700 ft 170° 170° 15 kt METAR EHHW 280125Z AUTO 17015KT 140V200 9999 -DZ BKN007/// BKN008/// OVC009/// 07/06 Q1008
01:55
I
7 °C 10 km+ 700 ft 170° 170° 15 kt METAR EHHW 280055Z AUTO 17015KT 9999 -DZ BKN007/// BKN008/// OVC009/// 07/06 Q1009
01:25
I
7 °C 10 km+ 800 ft 170° 170° 16 kt METAR EHHW 280025Z AUTO 17016KT 9999 -RA SCT007/// BKN008/// BKN010/// 07/06 Q1009 RERA REDZ
00:55
I
7 °C 10 km+ 800 ft 170° 170° 19 kt METAR EHHW 272355Z AUTO 17019KT 9999 -RA SCT006/// BKN008/// BKN010/// 07/06 Q1009 RERA REDZ
00:25
I
7 °C 10 km+ 700 ft 170° 170° 19 kt METAR EHHW 272325Z AUTO 17019KT 9999 -RA SCT006/// BKN007/// BKN009/// 07/06 Q1010

November 27, 2022

Time Code Weather Temp. Visibility Ceiling Wind METAR/SPECI
23:55
I
7 °C 10 km+ 700 ft 170° 170° 18 kt METAR EHHW 272255Z AUTO 17018KT 140V200 9999 -RA BKN007/// BKN008/// OVC010/// 07/06 Q1010 RERA REDZ
23:25
I
8 °C 10 km+ 800 ft 170° 170° 20 kt METAR EHHW 272225Z AUTO 17020KT 130V190 9999 -RA SCT007/// BKN008/// BKN009/// 08/06 Q1010
22:55
I
8 °C 10 km+ 800 ft 170° 170° 18 kt METAR EHHW 272155Z AUTO 17018KT 9999 -DZ SCT007/// BKN008/// BKN009/// 08/06 Q1010
22:25
I
8 °C 10 km+ 800 ft 170° 170° 17 kt METAR EHHW 272125Z AUTO 17017KT 140V200 9999 -RA SCT007/// BKN008/// OVC011/// 08/06 Q1011
21:55
I
8 °C 10 km+ 700 ft 170° 170° 16 kt METAR EHHW 272055Z AUTO 17016KT 9999 -DZ BKN007/// BKN008/// OVC010/// 08/06 Q1011
21:25
I
8 °C 10 km+ 800 ft 170° 170° 16 kt METAR EHHW 272025Z AUTO 17016KT 9999 SCT007/// BKN008/// OVC010/// 08/06 Q1012
20:55
I
8 °C 10 km+ 900 ft 170° 170° 17 kt METAR EHHW 271955Z AUTO 17017KT 9999 -DZ FEW007/// BKN009/// BKN010/// 08/06 Q1012
20:25
I
8 °C 10 km+ 900 ft 170° 170° 16 kt METAR EHHW 271925Z AUTO 17016KT 9999 FEW008/// BKN009/// OVC011/// 08/05 Q1012
19:55
I
8 °C 10 km+ 900 ft 180° 180° 19 kt METAR EHHW 271855Z AUTO 18019KT 9999 BKN009/// OVC010/// 08/05 Q1013
19:25
I
8 °C 10 km+ 900 ft 180° 180° 20 kt METAR EHHW 271825Z AUTO 18020KT 9999 BKN009/// OVC010/// 08/06 Q1013
18:55
I
8 °C 10 km+ 800 ft 180° 180° 20 kt METAR EHHW 271755Z AUTO 18020KT 9999 BKN008/// OVC010/// 08/05 Q1013
18:25
I
8 °C 10 km+ 800 ft 180° 180° 20 kt METAR EHHW 271725Z AUTO 18020KT 9999 BKN008/// OVC009/// 08/05 Q1014
17:55
I
8 °C 10 km+ 800 ft 180° 180° 20 kt METAR EHHW 271655Z AUTO 18020KT 9999 SCT007/// OVC008/// 08/06 Q1014
17:25
I
8 °C 10 km+ 700 ft 180° 180° 20 kt METAR EHHW 271625Z AUTO 18020KT 9999 FEW006/// BKN007/// OVC008/// 08/06 Q1014
16:55
I
8 °C 10 km+ 600 ft 180° 180° 18 kt METAR EHHW 271555Z AUTO 18018KT 9999 FEW005/// BKN006/// OVC008/// 08/06 Q1014
16:25
I
8 °C 10 km+ 700 ft 190° 190° 18 kt METAR EHHW 271525Z AUTO 19018KT 9999 SCT006/// BKN007/// OVC008/// 08/06 Q1015
15:55
I
8 °C 10 km+ 800 ft 190° 190° 19 kt METAR EHHW 271455Z AUTO 19019KT 9999 SCT006/// BKN008/// OVC009/// 08/06 Q1015
15:25
I
8 °C 10 km+ 700 ft 180° 180° 20 kt METAR EHHW 271425Z AUTO 18020KT 9999 BKN007/// OVC008/// 08/06 Q1015
14:55
I
8 °C 10 km+ 700 ft 190° 190° 19 kt METAR EHHW 271355Z AUTO 19019KT 9999 BKN007/// OVC008/// 08/06 Q1016
14:25
I
8 °C 10 km+ 700 ft 190° 190° 21 kt METAR EHHW 271325Z AUTO 19021KT 9999 BKN007/// OVC008/// 08/06 Q1016
13:55
I
8 °C 10 km+ 700 ft 190° 190° 22 kt METAR EHHW 271255Z AUTO 19022KT 9999 FEW006/// BKN007/// OVC008/// 08/06 Q1016
13:25
I
8 °C 10 km+ 600 ft 180° 180° 23 kt METAR EHHW 271225Z AUTO 18023KT 9999 FEW005/// BKN006/// BKN008/// 08/06 Q1017
12:55
I
7 °C 10 km+ 600 ft 180° 180° 26 kt METAR EHHW 271155Z AUTO 18026KT 9999 -DZ FEW005/// BKN006/// OVC008/// 07/06 Q1016
12:25
I
7 °C 10 km+ 700 ft 180° 180° 25 kt METAR EHHW 271125Z AUTO 18025KT 9999 FEW005/// BKN007/// BKN008/// 07/06 Q1017
11:55
I
7 °C 10 km+ 900 ft 180° 180° 25 kt METAR EHHW 271055Z AUTO 18025KT 9999 FEW006/// SCT008/// BKN009/// 07/06 Q1018
11:25
M
8 °C 10 km+ 1,300 ft 180° 180° 25 kt METAR EHHW 271025Z AUTO 18025KT 9999 FEW008/// SCT010/// BKN013/// 08/06 Q1018
10:55
M
8 °C 10 km+ 2,800 ft 190° 190° 23 kt METAR EHHW 270955Z AUTO 19023KT 9999 FEW002/// SCT025/// BKN028/// 08/05 Q1018

We and third parties follow your internet behavior on our website with cookies. If you continue, we assume you agree with our cookie policy.